sensor_id;sensor_type;location;lat;lon;timestamp;pressure;altitude;pressure_sealevel;temperature;humidity
54870;BME280;40756;-37.950;145.008;2022-12-20T00:01:42;101843.67;;;23.14;27.90
54870;BME280;40756;-37.950;145.008;2022-12-20T00:04:11;101841.85;;;23.64;28.96
54870;BME280;40756;-37.950;145.008;2022-12-20T00:06:41;101842.82;;;23.98;28.34
54870;BME280;40756;-37.950;145.008;2022-12-20T00:09:12;101840.22;;;24.23;27.85
54870;BME280;40756;-37.950;145.008;2022-12-20T00:11:42;101834.08;;;24.19;26.92
54870;BME280;40756;-37.950;145.008;2022-12-20T00:14:11;101837.02;;;24.09;27.55
54870;BME280;40756;-37.950;145.008;2022-12-20T00:16:40;101835.62;;;24.32;27.60
54870;BME280;40756;-37.950;145.008;2022-12-20T00:19:10;101827.40;;;24.74;27.18
54870;BME280;40756;-37.950;145.008;2022-12-20T00:21:40;101823.46;;;24.54;26.19
54870;BME280;40756;-37.950;145.008;2022-12-20T00:24:10;101820.89;;;24.75;26.79
54870;BME280;40756;-37.950;145.008;2022-12-20T00:26:40;101816.23;;;25.01;26.65
54870;BME280;40756;-37.950;145.008;2022-12-20T00:29:09;101812.80;;;25.26;25.85
54870;BME280;40756;-37.950;145.008;2022-12-20T00:31:39;101812.71;;;25.22;26.51
54870;BME280;40756;-37.950;145.008;2022-12-20T00:34:09;101806.71;;;25.31;25.33
54870;BME280;40756;-37.950;145.008;2022-12-20T00:36:40;101805.48;;;25.67;25.29
54870;BME280;40756;-37.950;145.008;2022-12-20T00:39:10;101799.88;;;25.90;26.03
54870;BME280;40756;-37.950;145.008;2022-12-20T00:41:40;101799.54;;;25.62;25.25
54870;BME280;40756;-37.950;145.008;2022-12-20T00:44:10;101793.39;;;25.95;25.50
54870;BME280;40756;-37.950;145.008;2022-12-20T00:46:39;101788.10;;;25.51;23.79
54870;BME280;40756;-37.950;145.008;2022-12-20T00:49:09;101785.33;;;25.63;24.57
54870;BME280;40756;-37.950;145.008;2022-12-20T00:51:38;101781.65;;;25.56;24.89
54870;BME280;40756;-37.950;145.008;2022-12-20T00:54:07;101780.93;;;25.99;25.35
54870;BME280;40756;-37.950;145.008;2022-12-20T00:56:37;101782.32;;;26.20;23.84
54870;BME280;40756;-37.950;145.008;2022-12-20T00:59:06;101779.13;;;26.33;23.81
54870;BME280;40756;-37.950;145.008;2022-12-20T01:01:36;101781.47;;;26.44;23.97
54870;BME280;40756;-37.950;145.008;2022-12-20T01:04:05;101770.75;;;26.73;23.75
54870;BME280;40756;-37.950;145.008;2022-12-20T01:06:35;101765.95;;;26.96;23.88
54870;BME280;40756;-37.950;145.008;2022-12-20T01:09:05;101761.30;;;27.14;23.71
54870;BME280;40756;-37.950;145.008;2022-12-20T01:11:37;101764.41;;;27.17;24.07
54870;BME280;40756;-37.950;145.008;2022-12-20T01:14:10;101764.25;;;27.15;22.91
54870;BME280;40756;-37.950;145.008;2022-12-20T01:16:42;101757.66;;;27.47;22.00
54870;BME280;40756;-37.950;145.008;2022-12-20T01:19:13;101751.98;;;27.54;22.13
54870;BME280;40756;-37.950;145.008;2022-12-20T01:21:43;101747.21;;;27.57;21.88
54870;BME280;40756;-37.950;145.008;2022-12-20T01:24:14;101740.46;;;27.69;21.54
54870;BME280;40756;-37.950;145.008;2022-12-20T01:26:45;101738.54;;;27.71;21.98
54870;BME280;40756;-37.950;145.008;2022-12-20T01:29:15;101734.53;;;27.95;21.23
54870;BME280;40756;-37.950;145.008;2022-12-20T01:31:44;101731.46;;;27.56;20.70
54870;BME280;40756;-37.950;145.008;2022-12-20T01:34:14;101731.48;;;28.01;21.61
54870;BME280;40756;-37.950;145.008;2022-12-20T01:36:44;101723.64;;;27.94;21.29
54870;BME280;40756;-37.950;145.008;2022-12-20T01:39:15;101718.78;;;27.56;22.12
54870;BME280;40756;-37.950;145.008;2022-12-20T01:41:46;101717.29;;;28.44;21.47
54870;BME280;40756;-37.950;145.008;2022-12-20T01:44:58;101711.22;;;28.54;22.27
54870;BME280;40756;-37.950;145.008;2022-12-20T01:47:31;101710.29;;;27.96;22.18
54870;BME280;40756;-37.950;145.008;2022-12-20T01:50:03;101708.91;;;28.14;21.66
54870;BME280;40756;-37.950;145.008;2022-12-20T01:52:37;101702.24;;;28.65;21.57
54870;BME280;40756;-37.950;145.008;2022-12-20T01:55:12;101696.73;;;28.72;22.26
54870;BME280;40756;-37.950;145.008;2022-12-20T01:57:48;101690.07;;;28.97;21.95
54870;BME280;40756;-37.950;145.008;2022-12-20T02:00:20;101693.05;;;28.88;22.41
54870;BME280;40756;-37.950;145.008;2022-12-20T02:02:50;101689.71;;;28.58;22.23
54870;BME280;40756;-37.950;145.008;2022-12-20T02:05:21;101685.25;;;28.76;20.81
54870;BME280;40756;-37.950;145.008;2022-12-20T02:07:53;101685.76;;;28.75;21.83
54870;BME280;40756;-37.950;145.008;2022-12-20T02:10:26;101687.15;;;29.07;21.73
54870;BME280;40756;-37.950;145.008;2022-12-20T02:13:06;101679.20;;;29.30;20.77
54870;BME280;40756;-37.950;145.008;2022-12-20T02:15:46;101675.90;;;28.58;20.29
54870;BME280;40756;-37.950;145.008;2022-12-20T02:18:24;101671.03;;;28.90;22.31
54870;BME280;40756;-37.950;145.008;2022-12-20T02:21:07;101667.62;;;29.53;20.32
54870;BME280;40756;-37.950;145.008;2022-12-20T02:23:59;101671.96;;;28.95;20.72
54870;BME280;40756;-37.950;145.008;2022-12-20T02:27:03;101660.31;;;29.66;21.08
54870;BME280;40756;-37.950;145.008;2022-12-20T02:29:53;101664.22;;;28.97;20.27
54870;BME280;40756;-37.950;145.008;2022-12-20T02:32:27;101656.87;;;29.30;20.73
54870;BME280;40756;-37.950;145.008;2022-12-20T02:34:59;101654.27;;;29.74;21.17
54870;BME280;40756;-37.950;145.008;2022-12-20T02:37:29;101651.11;;;30.02;20.30
54870;BME280;40756;-37.950;145.008;2022-12-20T02:39:59;101648.49;;;29.53;19.28
54870;BME280;40756;-37.950;145.008;2022-12-20T02:42:30;101642.32;;;29.32;20.61
54870;BME280;40756;-37.950;145.008;2022-12-20T02:45:05;101645.93;;;30.03;20.83
54870;BME280;40756;-37.950;145.008;2022-12-20T02:47:39;101642.43;;;30.30;20.57
54870;BME280;40756;-37.950;145.008;2022-12-20T02:50:12;101634.58;;;30.37;19.64
54870;BME280;40756;-37.950;145.008;2022-12-20T02:52:42;101635.39;;;29.74;19.30
54870;BME280;40756;-37.950;145.008;2022-12-20T02:55:12;101633.14;;;29.51;18.91
54870;BME280;40756;-37.950;145.008;2022-12-20T02:57:47;101627.71;;;29.75;19.31
54870;BME280;40756;-37.950;145.008;2022-12-20T03:00:19;101622.59;;;30.26;19.78
54870;BME280;40756;-37.950;145.008;2022-12-20T03:02:51;101620.03;;;30.05;19.39
54870;BME280;40756;-37.950;145.008;2022-12-20T03:05:22;101617.84;;;30.44;19.09
54870;BME280;40756;-37.950;145.008;2022-12-20T03:07:52;101609.03;;;30.14;18.66
54870;BME280;40756;-37.950;145.008;2022-12-20T03:10:22;101605.95;;;29.89;19.50
54870;BME280;40756;-37.950;145.008;2022-12-20T03:12:52;101600.16;;;30.53;20.11
54870;BME280;40756;-37.950;145.008;2022-12-20T03:15:21;101601.60;;;30.66;18.83
54870;BME280;40756;-37.950;145.008;2022-12-20T03:17:51;101589.75;;;30.59;18.77
54870;BME280;40756;-37.950;145.008;2022-12-20T03:20:20;101591.56;;;30.32;20.41
54870;BME280;40756;-37.950;145.008;2022-12-20T03:22:49;101588.78;;;29.76;19.35
54870;BME280;40756;-37.950;145.008;2022-12-20T03:25:19;101585.63;;;30.29;19.70
54870;BME280;40756;-37.950;145.008;2022-12-20T03:27:48;101578.52;;;30.17;18.81
54870;BME280;40756;-37.950;145.008;2022-12-20T03:30:17;101576.68;;;29.78;20.51
54870;BME280;40756;-37.950;145.008;2022-12-20T03:32:47;101571.32;;;29.47;20.15
54870;BME280;40756;-37.950;145.008;2022-12-20T03:35:17;101570.47;;;29.85;20.18
54870;BME280;40756;-37.950;145.008;2022-12-20T03:37:48;101561.54;;;30.24;20.11
54870;BME280;40756;-37.950;145.008;2022-12-20T03:40:17;101562.40;;;30.14;19.56
54870;BME280;40756;-37.950;145.008;2022-12-20T03:42:48;101566.52;;;30.64;19.76
54870;BME280;40756;-37.950;145.008;2022-12-20T03:45:17;101564.70;;;29.51;19.27
54870;BME280;40756;-37.950;145.008;2022-12-20T03:47:46;101554.68;;;29.83;19.28
54870;BME280;40756;-37.950;145.008;2022-12-20T03:50:16;101551.41;;;30.26;19.89
54870;BME280;40756;-37.950;145.008;2022-12-20T03:52:45;101541.44;;;29.44;19.31
54870;BME280;40756;-37.950;145.008;2022-12-20T03:55:14;101538.02;;;28.92;19.13
54870;BME280;40756;-37.950;145.008;2022-12-20T03:57:43;101536.84;;;29.04;20.16
54870;BME280;40756;-37.950;145.008;2022-12-20T04:00:17;101529.59;;;29.50;19.69
54870;BME280;40756;-37.950;145.008;2022-12-20T04:02:47;101534.22;;;30.40;20.10
54870;BME280;40756;-37.950;145.008;2022-12-20T04:05:17;101532.86;;;30.35;18.80
54870;BME280;40756;-37.950;145.008;2022-12-20T04:07:47;101527.18;;;30.63;19.14
54870;BME280;40756;-37.950;145.008;2022-12-20T04:10:16;101528.32;;;31.31;18.58
54870;BME280;40756;-37.950;145.008;2022-12-20T04:12:45;101527.41;;;31.49;19.77
54870;BME280;40756;-37.950;145.008;2022-12-20T04:15:15;101533.97;;;31.39;18.85
54870;BME280;40756;-37.950;145.008;2022-12-20T04:17:44;101524.95;;;30.42;18.90
54870;BME280;40756;-37.950;145.008;2022-12-20T04:20:15;101528.89;;;30.95;19.65
54870;BME280;40756;-37.950;145.008;2022-12-20T04:22:45;101528.92;;;31.22;19.00
54870;BME280;40756;-37.950;145.008;2022-12-20T04:25:17;101524.40;;;31.14;18.10
54870;BME280;40756;-37.950;145.008;2022-12-20T04:27:47;101513.05;;;31.37;18.21
54870;BME280;40756;-37.950;145.008;2022-12-20T04:30:16;101518.75;;;30.56;17.90
54870;BME280;40756;-37.950;145.008;2022-12-20T04:32:46;101513.25;;;31.04;17.89
54870;BME280;40756;-37.950;145.008;2022-12-20T04:35:15;101515.01;;;29.80;17.80
54870;BME280;40756;-37.950;145.008;2022-12-20T04:37:44;101510.24;;;30.66;18.65
54870;BME280;40756;-37.950;145.008;2022-12-20T04:40:14;101502.91;;;29.79;18.74
54870;BME280;40756;-37.950;145.008;2022-12-20T04:42:44;101505.65;;;30.66;19.04
54870;BME280;40756;-37.950;145.008;2022-12-20T04:45:13;101498.05;;;31.09;18.85
54870;BME280;40756;-37.950;145.008;2022-12-20T04:47:43;101500.06;;;31.38;18.85
54870;BME280;40756;-37.950;145.008;2022-12-20T04:50:12;101488.74;;;30.95;18.59
54870;BME280;40756;-37.950;145.008;2022-12-20T04:52:42;101491.68;;;30.90;17.96
54870;BME280;40756;-37.950;145.008;2022-12-20T04:55:11;101485.69;;;30.65;18.24
54870;BME280;40756;-37.950;145.008;2022-12-20T04:57:40;101487.59;;;30.70;18.54
54870;BME280;40756;-37.950;145.008;2022-12-20T05:00:10;101478.98;;;30.61;18.37
54870;BME280;40756;-37.950;145.008;2022-12-20T05:02:40;101476.30;;;31.05;19.36
54870;BME280;40756;-37.950;145.008;2022-12-20T05:05:10;101471.26;;;30.40;18.00
54870;BME280;40756;-37.950;145.008;2022-12-20T05:07:39;101465.68;;;30.68;18.34
54870;BME280;40756;-37.950;145.008;2022-12-20T05:10:09;101467.37;;;30.14;18.34
54870;BME280;40756;-37.950;145.008;2022-12-20T05:12:38;101464.91;;;30.69;18.67
54870;BME280;40756;-37.950;145.008;2022-12-20T05:15:08;101461.93;;;30.33;17.18
54870;BME280;40756;-37.950;145.008;2022-12-20T05:17:38;101458.14;;;30.79;17.93
54870;BME280;40756;-37.950;145.008;2022-12-20T05:20:08;101458.39;;;30.95;18.28
54870;BME280;40756;-37.950;145.008;2022-12-20T05:22:38;101459.01;;;30.62;18.61
54870;BME280;40756;-37.950;145.008;2022-12-20T05:25:08;101457.29;;;30.01;17.59
54870;BME280;40756;-37.950;145.008;2022-12-20T05:27:37;101454.15;;;30.16;17.41
54870;BME280;40756;-37.950;145.008;2022-12-20T05:30:09;101448.83;;;30.57;18.06
54870;BME280;40756;-37.950;145.008;2022-12-20T05:32:39;101443.40;;;29.96;17.53
54870;BME280;40756;-37.950;145.008;2022-12-20T05:35:09;101445.72;;;30.04;18.52
54870;BME280;40756;-37.950;145.008;2022-12-20T05:37:39;101448.02;;;30.47;18.45
54870;BME280;40756;-37.950;145.008;2022-12-20T05:40:09;101448.10;;;30.61;18.45
54870;BME280;40756;-37.950;145.008;2022-12-20T05:42:39;101446.03;;;30.79;18.10
54870;BME280;40756;-37.950;145.008;2022-12-20T05:45:09;101438.68;;;30.71;17.93
54870;BME280;40756;-37.950;145.008;2022-12-20T05:47:39;101441.38;;;30.78;18.18
54870;BME280;40756;-37.950;145.008;2022-12-20T05:50:09;101437.89;;;30.97;18.86
54870;BME280;40756;-37.950;145.008;2022-12-20T05:52:38;101437.27;;;29.77;18.33
54870;BME280;40756;-37.950;145.008;2022-12-20T05:55:08;101434.33;;;30.23;18.22
54870;BME280;40756;-37.950;145.008;2022-12-20T05:57:38;101428.63;;;31.18;19.03
54870;BME280;40756;-37.950;145.008;2022-12-20T06:00:09;101433.46;;;30.05;18.19
54870;BME280;40756;-37.950;145.008;2022-12-20T06:02:39;101428.06;;;30.34;17.94
54870;BME280;40756;-37.950;145.008;2022-12-20T06:05:09;101425.19;;;30.30;17.89
54870;BME280;40756;-37.950;145.008;2022-12-20T06:07:39;101421.27;;;30.27;17.71
54870;BME280;40756;-37.950;145.008;2022-12-20T06:10:09;101417.69;;;29.73;17.20
54870;BME280;40756;-37.950;145.008;2022-12-20T06:12:39;101410.80;;;29.56;17.31
54870;BME280;40756;-37.950;145.008;2022-12-20T06:15:09;101405.30;;;30.06;18.18
54870;BME280;40756;-37.950;145.008;2022-12-20T06:17:38;101404.77;;;30.21;18.58
54870;BME280;40756;-37.950;145.008;2022-12-20T06:20:09;101406.11;;;29.95;18.29
54870;BME280;40756;-37.950;145.008;2022-12-20T06:22:38;101403.62;;;30.17;17.55
54870;BME280;40756;-37.950;145.008;2022-12-20T06:25:08;101405.33;;;30.53;18.96
54870;BME280;40756;-37.950;145.008;2022-12-20T06:27:37;101394.54;;;29.69;17.26
54870;BME280;40756;-37.950;145.008;2022-12-20T06:30:09;101395.41;;;29.76;17.71
54870;BME280;40756;-37.950;145.008;2022-12-20T06:32:39;101387.66;;;29.86;18.05
54870;BME280;40756;-37.950;145.008;2022-12-20T06:35:09;101383.83;;;29.77;18.23
54870;BME280;40756;-37.950;145.008;2022-12-20T06:37:39;101381.24;;;29.36;18.39
54870;BME280;40756;-37.950;145.008;2022-12-20T06:40:10;101376.51;;;30.19;19.61
54870;BME280;40756;-37.950;145.008;2022-12-20T06:42:41;101368.77;;;29.89;19.19
54870;BME280;40756;-37.950;145.008;2022-12-20T06:45:11;101365.34;;;29.10;18.59
54870;BME280;40756;-37.950;145.008;2022-12-20T06:47:41;101357.71;;;28.61;18.96
54870;BME280;40756;-37.950;145.008;2022-12-20T06:50:11;101359.25;;;29.23;19.36
54870;BME280;40756;-37.950;145.008;2022-12-20T06:52:40;101355.47;;;29.15;19.13
54870;BME280;40756;-37.950;145.008;2022-12-20T06:55:09;101355.08;;;29.70;19.30
54870;BME280;40756;-37.950;145.008;2022-12-20T06:57:39;101355.12;;;29.28;20.26
54870;BME280;40756;-37.950;145.008;2022-12-20T07:00:10;101351.16;;;28.81;19.66
54870;BME280;40756;-37.950;145.008;2022-12-20T07:02:39;101349.25;;;28.71;20.31
54870;BME280;40756;-37.950;145.008;2022-12-20T07:05:09;101351.07;;;28.62;19.51
54870;BME280;40756;-37.950;145.008;2022-12-20T07:07:39;101349.85;;;29.08;19.72
54870;BME280;40756;-37.950;145.008;2022-12-20T07:10:09;101350.32;;;29.20;19.74
54870;BME280;40756;-37.950;145.008;2022-12-20T07:12:39;101349.26;;;28.95;19.45
54870;BME280;40756;-37.950;145.008;2022-12-20T07:15:10;101342.58;;;29.29;19.50
54870;BME280;40756;-37.950;145.008;2022-12-20T07:17:39;101340.28;;;29.08;20.27
54870;BME280;40756;-37.950;145.008;2022-12-20T07:20:09;101350.69;;;28.57;20.57
54870;BME280;40756;-37.950;145.008;2022-12-20T07:22:39;101349.53;;;28.50;20.23
54870;BME280;40756;-37.950;145.008;2022-12-20T07:25:09;101347.51;;;28.16;19.69
54870;BME280;40756;-37.950;145.008;2022-12-20T07:27:39;101343.55;;;28.67;20.49
54870;BME280;40756;-37.950;145.008;2022-12-20T07:30:09;101343.87;;;28.47;19.80
54870;BME280;40756;-37.950;145.008;2022-12-20T07:32:39;101342.47;;;28.14;21.36
54870;BME280;40756;-37.950;145.008;2022-12-20T07:35:10;101349.65;;;27.65;21.66
54870;BME280;40756;-37.950;145.008;2022-12-20T07:37:39;101348.76;;;27.94;21.73
54870;BME280;40756;-37.950;145.008;2022-12-20T07:40:11;101345.53;;;27.88;21.71
54870;BME280;40756;-37.950;145.008;2022-12-20T07:42:41;101349.42;;;27.13;21.81
54870;BME280;40756;-37.950;145.008;2022-12-20T07:45:11;101348.96;;;27.29;22.25
54870;BME280;40756;-37.950;145.008;2022-12-20T07:47:41;101346.70;;;26.64;22.67
54870;BME280;40756;-37.950;145.008;2022-12-20T07:50:11;101341.15;;;26.93;23.29
54870;BME280;40756;-37.950;145.008;2022-12-20T07:52:43;101340.32;;;26.59;23.60
54870;BME280;40756;-37.950;145.008;2022-12-20T07:55:15;101345.93;;;26.83;24.09
54870;BME280;40756;-37.950;145.008;2022-12-20T07:57:47;101348.17;;;26.89;24.32
54870;BME280;40756;-37.950;145.008;2022-12-20T08:00:18;101350.91;;;26.51;24.62
54870;BME280;40756;-37.950;145.008;2022-12-20T08:02:51;101349.61;;;26.41;24.70
54870;BME280;40756;-37.950;145.008;2022-12-20T08:05:22;101354.64;;;26.06;24.85
54870;BME280;40756;-37.950;145.008;2022-12-20T08:07:53;101354.33;;;26.22;24.90
54870;BME280;40756;-37.950;145.008;2022-12-20T08:10:24;101353.86;;;26.05;25.26
54870;BME280;40756;-37.950;145.008;2022-12-20T08:12:54;101355.25;;;26.11;25.20
54870;BME280;40756;-37.950;145.008;2022-12-20T08:15:25;101352.83;;;25.70;25.26
54870;BME280;40756;-37.950;145.008;2022-12-20T08:17:55;101354.68;;;25.53;26.14
54870;BME280;40756;-37.950;145.008;2022-12-20T08:20:25;101355.33;;;25.54;26.50
54870;BME280;40756;-37.950;145.008;2022-12-20T08:22:54;101360.41;;;25.45;26.77
54870;BME280;40756;-37.950;145.008;2022-12-20T08:25:24;101361.13;;;25.04;27.15
54870;BME280;40756;-37.950;145.008;2022-12-20T08:27:53;101364.70;;;25.62;27.19
54870;BME280;40756;-37.950;145.008;2022-12-20T08:30:23;101366.39;;;25.79;27.29
54870;BME280;40756;-37.950;145.008;2022-12-20T08:32:52;101366.07;;;25.04;27.43
54870;BME280;40756;-37.950;145.008;2022-12-20T08:35:22;101368.16;;;24.55;27.80
54870;BME280;40756;-37.950;145.008;2022-12-20T08:37:52;101370.62;;;24.84;28.13
54870;BME280;40756;-37.950;145.008;2022-12-20T08:40:22;101372.47;;;24.64;28.19
54870;BME280;40756;-37.950;145.008;2022-12-20T08:42:52;101371.72;;;24.25;28.47
54870;BME280;40756;-37.950;145.008;2022-12-20T08:45:22;101370.50;;;23.86;29.04
54870;BME280;40756;-37.950;145.008;2022-12-20T08:47:52;101369.54;;;24.12;29.11
54870;BME280;40756;-37.950;145.008;2022-12-20T08:50:22;101369.43;;;23.62;29.92
54870;BME280;40756;-37.950;145.008;2022-12-20T08:52:51;101376.83;;;24.57;29.76
54870;BME280;40756;-37.950;145.008;2022-12-20T08:55:21;101373.77;;;24.24;29.90
54870;BME280;40756;-37.950;145.008;2022-12-20T08:57:50;101380.13;;;23.95;30.00
54870;BME280;40756;-37.950;145.008;2022-12-20T09:00:20;101381.50;;;23.60;30.72
54870;BME280;40756;-37.950;145.008;2022-12-20T09:02:50;101383.13;;;23.96;30.59
54870;BME280;40756;-37.950;145.008;2022-12-20T09:05:22;101387.09;;;23.61;30.80
54870;BME280;40756;-37.950;145.008;2022-12-20T09:07:51;101388.96;;;23.74;30.59
54870;BME280;40756;-37.950;145.008;2022-12-20T09:10:20;101395.61;;;23.35;30.89
54870;BME280;40756;-37.950;145.008;2022-12-20T09:12:50;101397.83;;;23.69;31.12
54870;BME280;40756;-37.950;145.008;2022-12-20T09:15:19;101400.09;;;23.38;31.46
54870;BME280;40756;-37.950;145.008;2022-12-20T09:17:49;101397.20;;;23.58;31.04
54870;BME280;40756;-37.950;145.008;2022-12-20T09:20:18;101397.09;;;23.36;31.59
54870;BME280;40756;-37.950;145.008;2022-12-20T09:22:48;101394.14;;;23.65;31.11
54870;BME280;40756;-37.950;145.008;2022-12-20T09:25:17;101394.85;;;23.55;31.67
54870;BME280;40756;-37.950;145.008;2022-12-20T09:27:47;101398.50;;;23.24;31.66
54870;BME280;40756;-37.950;145.008;2022-12-20T09:30:16;101400.07;;;22.75;32.07
54870;BME280;40756;-37.950;145.008;2022-12-20T09:32:46;101402.68;;;23.44;31.90
54870;BME280;40756;-37.950;145.008;2022-12-20T09:35:15;101401.77;;;22.99;32.15
54870;BME280;40756;-37.950;145.008;2022-12-20T09:37:45;101399.26;;;22.89;32.27
54870;BME280;40756;-37.950;145.008;2022-12-20T09:40:18;101400.73;;;22.60;32.24
54870;BME280;40756;-37.950;145.008;2022-12-20T09:42:50;101404.80;;;22.47;32.77
54870;BME280;40756;-37.950;145.008;2022-12-20T09:45:24;101405.29;;;22.30;32.73
54870;BME280;40756;-37.950;145.008;2022-12-20T09:47:56;101402.09;;;22.30;33.01
54870;BME280;40756;-37.950;145.008;2022-12-20T09:50:36;101407.33;;;22.04;33.26
54870;BME280;40756;-37.950;145.008;2022-12-20T09:53:21;101400.36;;;21.87;33.43
54870;BME280;40756;-37.950;145.008;2022-12-20T09:56:02;101399.87;;;21.95;33.93
54870;BME280;40756;-37.950;145.008;2022-12-20T09:58:49;101400.64;;;21.70;33.93
54870;BME280;40756;-37.950;145.008;2022-12-20T10:01:27;101401.44;;;21.72;34.13
54870;BME280;40756;-37.950;145.008;2022-12-20T10:03:58;101403.44;;;21.80;34.09
54870;BME280;40756;-37.950;145.008;2022-12-20T10:06:38;101405.75;;;21.20;34.77
54870;BME280;40756;-37.950;145.008;2022-12-20T10:09:25;101407.02;;;21.30;34.87
54870;BME280;40756;-37.950;145.008;2022-12-20T10:12:07;101404.92;;;21.63;34.66
54870;BME280;40756;-37.950;145.008;2022-12-20T10:14:52;101412.29;;;21.56;34.51
54870;BME280;40756;-37.950;145.008;2022-12-20T10:17:36;101411.92;;;21.21;34.55
54870;BME280;40756;-37.950;145.008;2022-12-20T10:20:26;101409.48;;;21.30;34.85
54870;BME280;40756;-37.950;145.008;2022-12-20T10:23:01;101412.52;;;21.32;35.01
54870;BME280;40756;-37.950;145.008;2022-12-20T10:25:33;101414.65;;;21.00;35.78
54870;BME280;40756;-37.950;145.008;2022-12-20T10:28:08;101421.53;;;21.11;36.31
54870;BME280;40756;-37.950;145.008;2022-12-20T10:30:39;101419.97;;;20.72;36.08
54870;BME280;40756;-37.950;145.008;2022-12-20T10:33:17;101418.32;;;20.87;35.70
54870;BME280;40756;-37.950;145.008;2022-12-20T10:35:48;101416.25;;;20.57;35.81
54870;BME280;40756;-37.950;145.008;2022-12-20T10:38:18;101420.69;;;20.83;35.66
54870;BME280;40756;-37.950;145.008;2022-12-20T10:40:58;101422.49;;;20.21;36.39
54870;BME280;40756;-37.950;145.008;2022-12-20T10:43:38;101430.29;;;20.38;36.20
54870;BME280;40756;-37.950;145.008;2022-12-20T10:46:12;101429.27;;;20.40;36.42
54870;BME280;40756;-37.950;145.008;2022-12-20T10:48:45;101435.21;;;20.07;37.14
54870;BME280;40756;-37.950;145.008;2022-12-20T10:51:16;101432.86;;;19.97;37.38
54870;BME280;40756;-37.950;145.008;2022-12-20T10:53:56;101431.99;;;20.32;37.06
54870;BME280;40756;-37.950;145.008;2022-12-20T10:56:28;101432.18;;;20.10;37.05
54870;BME280;40756;-37.950;145.008;2022-12-20T10:59:00;101427.60;;;20.07;37.14
54870;BME280;40756;-37.950;145.008;2022-12-20T11:01:33;101429.35;;;19.71;37.64
54870;BME280;40756;-37.950;145.008;2022-12-20T11:04:20;101422.98;;;19.93;37.52
54870;BME280;40756;-37.950;145.008;2022-12-20T11:06:54;101420.71;;;19.62;37.68
54870;BME280;40756;-37.950;145.008;2022-12-20T11:09:26;101424.78;;;19.30;38.12
54870;BME280;40756;-37.950;145.008;2022-12-20T11:12:00;101415.55;;;19.22;38.30
54870;BME280;40756;-37.950;145.008;2022-12-20T11:14:31;101415.08;;;19.38;38.33
54870;BME280;40756;-37.950;145.008;2022-12-20T11:17:05;101417.27;;;19.57;38.46
54870;BME280;40756;-37.950;145.008;2022-12-20T11:20:13;101416.22;;;19.62;38.17
54870;BME280;40756;-37.950;145.008;2022-12-20T11:22:51;101415.49;;;19.16;38.55
54870;BME280;40756;-37.950;145.008;2022-12-20T11:25:38;101405.41;;;19.31;38.54
54870;BME280;40756;-37.950;145.008;2022-12-20T11:28:28;101405.26;;;19.29;38.49
54870;BME280;40756;-37.950;145.008;2022-12-20T11:31:08;101404.84;;;18.87;39.15
54870;BME280;40756;-37.950;145.008;2022-12-20T11:33:54;101398.65;;;19.37;38.86
54870;BME280;40756;-37.950;145.008;2022-12-20T11:36:37;101399.09;;;18.59;39.44
54870;BME280;40756;-37.950;145.008;2022-12-20T11:39:16;101402.60;;;18.50;39.52
54870;BME280;40756;-37.950;145.008;2022-12-20T11:41:54;101392.35;;;18.54;39.85
54870;BME280;40756;-37.950;145.008;2022-12-20T11:44:32;101391.23;;;18.20;40.77
54870;BME280;40756;-37.950;145.008;2022-12-20T11:47:27;101385.35;;;18.06;40.60
54870;BME280;40756;-37.950;145.008;2022-12-20T11:50:15;101375.80;;;18.16;40.60
54870;BME280;40756;-37.950;145.008;2022-12-20T11:52:52;101367.28;;;17.99;41.29
54870;BME280;40756;-37.950;145.008;2022-12-20T11:55:26;101370.23;;;18.17;40.66
54870;BME280;40756;-37.950;145.008;2022-12-20T11:57:59;101368.75;;;17.71;41.39
54870;BME280;40756;-37.950;145.008;2022-12-20T12:00:33;101370.51;;;17.46;41.83
54870;BME280;40756;-37.950;145.008;2022-12-20T12:03:11;101371.96;;;17.32;41.92
54870;BME280;40756;-37.950;145.008;2022-12-20T12:05:45;101365.28;;;17.20;42.11
54870;BME280;40756;-37.950;145.008;2022-12-20T12:08:20;101361.14;;;17.56;42.41
54870;BME280;40756;-37.950;145.008;2022-12-20T12:10:55;101355.06;;;17.20;42.19
54870;BME280;40756;-37.950;145.008;2022-12-20T12:13:27;101351.24;;;17.42;42.25
54870;BME280;40756;-37.950;145.008;2022-12-20T12:16:02;101344.15;;;17.48;42.50
54870;BME280;40756;-37.950;145.008;2022-12-20T12:18:36;101338.62;;;17.38;42.91
54870;BME280;40756;-37.950;145.008;2022-12-20T12:21:10;101333.09;;;17.46;42.28
54870;BME280;40756;-37.950;145.008;2022-12-20T12:23:53;101329.18;;;17.14;42.37
54870;BME280;40756;-37.950;145.008;2022-12-20T12:26:28;101325.58;;;17.18;43.06
54870;BME280;40756;-37.950;145.008;2022-12-20T12:29:00;101317.60;;;16.76;43.59
54870;BME280;40756;-37.950;145.008;2022-12-20T12:31:35;101310.45;;;17.26;42.88
54870;BME280;40756;-37.950;145.008;2022-12-20T12:34:12;101304.52;;;17.12;43.62
54870;BME280;40756;-37.950;145.008;2022-12-20T12:37:19;101302.54;;;16.77;43.34
54870;BME280;40756;-37.950;145.008;2022-12-20T12:40:14;101297.23;;;17.07;43.28
54870;BME280;40756;-37.950;145.008;2022-12-20T12:43:19;101297.50;;;17.01;43.11
54870;BME280;40756;-37.950;145.008;2022-12-20T12:45:53;101288.38;;;17.15;42.92
54870;BME280;40756;-37.950;145.008;2022-12-20T12:48:28;101289.99;;;16.92;42.91